Time;durP1;ratioP1;P1;durP2;ratioP2;P2;SDS_P1;SDS_P2;PMS_P1;PMS_P2;Temp;Humidity;BMP_temperature;BMP_pressure;BME280_temperature;BME280_humidity;BME280_pressure;Samples;Min_cycle;Max_cycle;Signal;HPM_P1;HPM_P2
2023/03/14 00:02:02;;;;;;;6.47;3.80;;;-2.60;94.50;;;;;;5032063;28;20037;-84
2023/03/14 00:04:28;;;;;;;6.28;4.05;;;-2.60;94.50;;;;;;5034432;28;20022;-86
2023/03/14 00:06:54;;;;;;;6.82;3.38;;;-2.60;94.50;;;;;;5036900;28;20048;-86
2023/03/14 00:09:20;;;;;;;10.07;4.28;;;-2.60;94.30;;;;;;5028387;28;20061;-84
2023/03/14 00:11:46;;;;;;;6.88;3.78;;;-2.60;94.20;;;;;;5027595;28;20061;-85
2023/03/14 00:14:12;;;;;;;7.55;2.85;;;-2.60;94.30;;;;;;5029168;28;20034;-86
2023/03/14 00:16:38;;;;;;;3.60;2.15;;;-2.60;94.30;;;;;;5037976;28;20063;-86
2023/03/14 00:19:04;;;;;;;7.47;3.40;;;-2.60;94.30;;;;;;5042869;28;20022;-85
2023/03/14 00:21:29;;;;;;;6.30;3.80;;;-2.60;94.50;;;;;;5033180;28;20467;-84
2023/03/14 00:23:55;;;;;;;4.07;2.65;;;-2.60;94.40;;;;;;5038766;28;20025;-83
2023/03/14 00:26:21;;;;;;;7.95;3.60;;;-2.60;94.50;;;;;;5023431;28;20026;-86
2023/03/14 00:28:52;;;;;;;5.22;3.25;;;-2.60;94.60;;;;;;5015450;28;20060;-84
2023/03/14 00:31:18;;;;;;;7.85;3.45;;;-2.60;94.60;;;;;;5027046;28;20018;-83
2023/03/14 00:33:45;;;;;;;5.60;3.53;;;-2.70;94.60;;;;;;5022265;28;20344;-85
2023/03/14 00:36:16;;;;;;;7.20;3.67;;;-2.70;94.80;;;;;;5027331;28;20021;-84
2023/03/14 00:38:44;;;;;;;5.63;3.72;;;-2.60;94.80;;;;;;5020900;28;20022;-86
2023/03/14 00:41:11;;;;;;;;;;;-2.60;94.90;;;;;;5020498;28;20029;-84
2023/03/14 00:43:37;;;;;;;11.40;3.97;;;-2.50;94.90;;;;;;5024856;28;19905;-85
2023/03/14 00:46:03;;;;;;;4.10;2.45;;;-2.50;94.80;;;;;;5032969;28;20029;-85
2023/03/14 00:48:29;;;;;;;19.35;3.97;;;-2.50;94.80;;;;;;5034317;28;20040;-84
2023/03/14 00:50:55;;;;;;;9.57;3.22;;;-2.50;94.80;;;;;;5027738;28;20018;-84
2023/03/14 00:53:21;;;;;;;9.85;3.28;;;-2.60;94.90;;;;;;5030392;28;20441;-85
2023/03/14 00:55:47;;;;;;;4.05;3.17;;;-2.50;95.20;;;;;;5023078;28;20048;-83
2023/03/14 00:58:16;;;;;;;4.97;3.22;;;-2.50;95.40;;;;;;5032574;28;20394;-85
2023/03/14 01:00:43;;;;;;;4.97;3.25;;;-2.50;95.50;;;;;;5031395;28;20411;-84
2023/03/14 01:03:09;;;;;;;4.97;2.72;;;-2.50;95.60;;;;;;5019626;28;20569;-83
2023/03/14 01:05:36;;;;;;;9.80;3.30;;;-2.60;95.80;;;;;;5032338;28;20029;-82
2023/03/14 01:08:02;;;;;;;4.72;2.35;;;-2.60;96.00;;;;;;5033855;28;20033;-83
2023/03/14 01:10:28;;;;;;;10.77;4.28;;;-2.50;96.20;;;;;;5046009;28;20034;-83
2023/03/14 01:12:54;;;;;;;6.35;3.55;;;-2.50;96.30;;;;;;5035762;28;20076;-84
2023/03/14 01:15:20;;;;;;;7.22;3.15;;;-2.50;96.40;;;;;;5028642;28;20033;-84
2023/03/14 01:17:46;;;;;;;8.52;2.83;;;-2.50;96.70;;;;;;5023486;28;20018;-85
2023/03/14 01:20:14;;;;;;;6.25;3.53;;;-2.50;96.90;;;;;;5024277;28;20033;-84
2023/03/14 01:22:41;;;;;;;3.88;2.08;;;-2.50;97.30;;;;;;5038258;28;20022;-83
2023/03/14 01:25:10;;;;;;;5.28;2.55;;;-2.50;97.70;;;;;;5034344;28;20014;-83
2023/03/14 01:27:36;;;;;;;7.70;3.65;;;-2.50;97.90;;;;;;5035086;28;20379;-83
2023/03/14 01:30:03;;;;;;;7.15;3.33;;;-2.50;98.30;;;;;;5044724;28;20030;-83
2023/03/14 01:32:29;;;;;;;7.90;4.05;;;-2.50;98.70;;;;;;5027217;28;20034;-84
2023/03/14 01:34:55;;;;;;;6.80;3.25;;;-2.50;99.00;;;;;;5023616;28;20099;-84
2023/03/14 01:37:21;;;;;;;6.43;5.00;;;-2.50;99.40;;;;;;5035396;28;20026;-83
2023/03/14 01:39:47;;;;;;;5.53;3.10;;;-2.50;99.70;;;;;;5028846;28;20021;-83
2023/03/14 01:42:14;;;;;;;4.75;3.10;;;-2.40;99.90;;;;;;5031055;28;20043;-84
2023/03/14 01:44:55;;;;;;;3.87;2.97;;;-2.40;99.90;;;;;;5016777;28;20546;-83
2023/03/14 01:47:22;;;;;;;5.63;3.60;;;-2.40;99.90;;;;;;5017783;28;20045;-83
2023/03/14 01:49:53;;;;;;;5.75;3.08;;;-2.40;99.90;;;;;;5023185;28;20074;-83
2023/03/14 01:52:33;;;;;;;4.55;2.95;;;-2.30;99.90;;;;;;5030821;28;20034;-83
2023/03/14 01:55:06;;;;;;;9.65;3.55;;;-2.30;99.90;;;;;;5028172;28;20104;-83
2023/03/14 01:57:46;;;;;;;6.82;3.85;;;-2.30;99.90;;;;;;5019451;28;20032;-84
2023/03/14 02:00:15;;;;;;;4.90;3.20;;;-2.20;99.90;;;;;;5023321;28;20038;-83
2023/03/14 02:03:21;;;;;;;6.35;3.05;;;-2.20;99.90;;;;;;5028886;28;20104;-84
2023/03/14 02:05:47;;;;;;;5.63;3.17;;;-2.20;99.90;;;;;;4981336;28;20030;-84
2023/03/14 02:08:19;;;;;;;4.13;2.38;;;-2.20;99.90;;;;;;4994641;28;20280;-85
2023/03/14 02:10:49;;;;;;;6.30;3.95;;;-2.20;99.90;;;;;;4977798;28;20464;-85
2023/03/14 02:13:18;;;;;;;7.95;3.92;;;-2.20;99.90;;;;;;4990767;28;20126;-85
2023/03/14 02:15:46;;;;;;;7.65;3.88;;;-2.10;99.90;;;;;;4992102;28;20133;-86
2023/03/14 02:18:12;;;;;;;;;;;-2.10;99.90;;;;;;4994128;28;20209;-87
2023/03/14 02:21:04;;;;;;;3.47;2.35;;;-2.00;99.90;;;;;;4990269;28;19976;-86
2023/03/14 02:23:36;;;;;;;4.80;3.25;;;-2.00;99.90;;;;;;4992694;28;20038;-85
2023/03/14 02:26:10;;;;;;;9.10;3.47;;;-2.00;99.90;;;;;;4987729;28;20045;-84
2023/03/14 02:28:36;;;;;;;7.07;3.72;;;-1.90;99.90;;;;;;4982649;28;20057;-85
2023/03/14 02:31:03;;;;;;;4.15;2.60;;;-1.90;99.90;;;;;;4977531;28;20556;-86
2023/03/14 02:33:28;;;;;;;6.50;3.47;;;-1.90;99.90;;;;;;4967373;28;20039;-83
2023/03/14 02:36:00;;;;;;;5.90;3.35;;;-1.90;99.90;;;;;;4975384;28;20448;-85
2023/03/14 02:38:44;;;;;;;10.38;4.05;;;-1.80;99.90;;;;;;4959856;28;20055;-85
2023/03/14 02:41:10;;;;;;;7.90;3.65;;;-1.80;99.90;;;;;;5023641;28;20473;-84
2023/03/14 02:43:35;;;;;;;7.18;3.90;;;-1.80;99.90;;;;;;5031933;28;20030;-86
2023/03/14 02:46:04;;;;;;;5.28;3.20;;;-1.90;99.90;;;;;;5025201;28;20024;-87
2023/03/14 02:48:51;;;;;;;5.65;4.00;;;-1.80;99.90;;;;;;5025649;28;20373;-86
2023/03/14 02:51:17;;;;;;;8.05;4.82;;;-1.80;99.90;;;;;;5018718;28;20022;-86
2023/03/14 02:53:43;;;;;;;7.55;4.80;;;-1.80;99.90;;;;;;5036897;28;20041;-86
2023/03/14 02:56:09;;;;;;;8.38;3.72;;;-1.80;99.90;;;;;;5028215;28;20013;-85
2023/03/14 02:58:37;;;;;;;8.75;3.47;;;-1.80;99.90;;;;;;5025242;28;20388;-87
2023/03/14 03:01:03;;;;;;;5.35;4.20;;;-1.80;99.90;;;;;;5030920;28;20495;-86
2023/03/14 03:03:29;;;;;;;5.22;3.53;;;-1.80;99.90;;;;;;5026223;28;20085;-88
2023/03/14 03:05:56;;;;;;;6.50;4.35;;;-1.70;99.90;;;;;;5033074;28;20056;-87
2023/03/14 03:08:25;;;;;;;4.78;3.45;;;-1.70;99.90;;;;;;5027999;28;20442;-86
2023/03/14 03:10:51;;;;;;;8.75;5.18;;;-1.70;99.90;;;;;;5018821;28;20032;-87
2023/03/14 03:13:18;;;;;;;5.68;3.63;;;-1.60;99.90;;;;;;5021153;28;20038;-87
2023/03/14 03:15:44;;;;;;;8.10;4.97;;;-1.60;99.90;;;;;;5027888;28;20010;-87
2023/03/14 03:18:10;;;;;;;6.57;3.13;;;-1.60;99.90;;;;;;5022821;28;20049;-87
2023/03/14 03:20:36;;;;;;;5.40;3.90;;;-1.60;99.90;;;;;;5021886;28;20030;-86
2023/03/14 03:23:02;;;;;;;5.25;4.13;;;-1.50;99.90;;;;;;5020121;28;20029;-87
2023/03/14 03:25:28;;;;;;;9.75;5.30;;;-1.50;99.90;;;;;;5026416;28;20022;-87
2023/03/14 03:27:54;;;;;;;7.05;4.07;;;-1.40;99.90;;;;;;5049813;28;20057;-86
2023/03/14 03:30:20;;;;;;;7.35;5.97;;;-1.40;99.90;;;;;;5037270;28;20033;-86
2023/03/14 03:32:46;;;;;;;11.52;6.90;;;-1.30;99.90;;;;;;5042635;28;20041;-88
2023/03/14 03:35:13;;;;;;;10.40;6.07;;;-1.30;99.90;;;;;;5028452;28;20072;-87
2023/03/14 03:37:39;;;;;;;11.48;6.25;;;-1.20;99.90;;;;;;5035646;28;20013;-86
2023/03/14 03:40:06;;;;;;;9.98;7.28;;;-1.10;99.90;;;;;;5048392;28;20029;-88
2023/03/14 03:42:33;;;;;;;9.75;6.63;;;-1.10;99.90;;;;;;5031557;28;20347;-88
2023/03/14 03:45:00;;;;;;;8.95;5.45;;;-1.00;99.90;;;;;;5026449;28;20033;-84
2023/03/14 03:47:27;;;;;;;10.50;6.00;;;-1.00;99.90;;;;;;5023246;28;20030;-85
2023/03/14 03:49:53;;;;;;;8.60;4.87;;;-1.00;99.90;;;;;;5018719;28;20030;-85
2023/03/14 03:52:20;;;;;;;8.82;5.68;;;-0.90;99.90;;;;;;5023382;28;20758;-84
2023/03/14 03:54:46;;;;;;;8.80;6.97;;;-0.90;99.90;;;;;;5012978;28;20014;-85
2023/03/14 03:57:12;;;;;;;8.85;5.53;;;-0.90;99.90;;;;;;5031715;28;20374;-82
2023/03/14 03:59:39;;;;;;;9.70;5.88;;;-0.80;99.90;;;;;;5038532;28;20108;-85
2023/03/14 04:02:06;;;;;;;11.05;5.38;;;-0.70;99.90;;;;;;5022932;28;20060;-86
2023/03/14 04:04:32;;;;;;;13.15;7.22;;;-0.70;99.90;;;;;;5031490;28;20115;-85
2023/03/14 04:06:58;;;;;;;9.50;6.25;;;-0.60;99.90;;;;;;5043314;28;20061;-85
2023/03/14 04:09:24;;;;;;;8.68;5.72;;;-0.60;99.90;;;;;;5037422;28;20095;-84
2023/03/14 04:11:50;;;;;;;10.68;6.18;;;-0.50;99.90;;;;;;5040427;28;20064;-85
2023/03/14 04:14:16;;;;;;;7.00;5.43;;;-0.50;99.90;;;;;;5045118;28;20045;-85
2023/03/14 04:16:42;;;;;;;5.25;4.28;;;-0.50;99.90;;;;;;5044038;28;20053;-85
2023/03/14 04:19:07;;;;;;;8.90;6.18;;;-0.40;99.90;;;;;;5050893;28;20025;-85
2023/03/14 04:21:33;;;;;;;7.28;5.00;;;-0.40;99.90;;;;;;5053815;28;20033;-85
2023/03/14 04:23:59;;;;;;;9.85;6.13;;;-0.30;99.90;;;;;;5032847;28;20038;-85
2023/03/14 04:26:25;;;;;;;9.65;5.70;;;-0.30;99.90;;;;;;5037034;28;20414;-86
2023/03/14 04:28:51;;;;;;;11.85;7.70;;;-0.20;99.90;;;;;;5015473;28;20683;-86
2023/03/14 04:31:19;;;;;;;7.32;5.30;;;-0.20;99.90;;;;;;5016103;28;20034;-85
2023/03/14 04:33:46;;;;;;;11.07;7.72;;;-0.10;99.90;;;;;;5024952;28;20033;-87
2023/03/14 04:36:12;;;;;;;8.35;5.63;;;-0.10;99.90;;;;;;5024772;28;20072;-88
2023/03/14 04:38:38;;;;;;;11.88;6.50;;;-0.10;99.90;;;;;;5027722;28;20057;-87
2023/03/14 04:41:05;;;;;;;9.05;6.13;;;0.00;99.90;;;;;;5025681;28;20445;-86
2023/03/14 04:43:31;;;;;;;9.95;6.63;;;0.00;99.90;;;;;;5018230;28;20029;-87
2023/03/14 04:45:58;;;;;;;11.07;7.13;;;0.00;99.90;;;;;;5017257;28;20022;-88
2023/03/14 04:48:25;;;;;;;7.72;5.40;;;0.10;99.90;;;;;;5028299;28;20498;-86
2023/03/14 04:50:51;;;;;;;12.23;6.30;;;0.10;99.90;;;;;;5004265;28;20141;-87
2023/03/14 04:53:18;;;;;;;7.20;5.00;;;0.20;99.90;;;;;;5028322;28;20068;-88
2023/03/14 04:55:52;;;;;;;11.05;7.15;;;0.20;99.90;;;;;;5039292;28;20072;-88
2023/03/14 04:58:23;;;;;;;9.00;6.07;;;0.20;99.90;;;;;;5030267;28;20041;-88
2023/03/14 05:00:49;;;;;;;9.15;5.30;;;0.30;99.90;;;;;;5014250;28;20076;-86
2023/03/14 05:03:17;;;;;;;8.37;5.93;;;0.20;99.90;;;;;;5048682;28;20051;-89
2023/03/14 05:05:43;;;;;;;7.38;4.88;;;0.30;99.90;;;;;;5042186;28;20002;-87
2023/03/14 05:08:10;;;;;;;6.75;4.55;;;0.30;99.90;;;;;;5046905;28;20065;-92
2023/03/14 05:10:36;;;;;;;9.57;5.50;;;0.30;99.90;;;;;;5045164;28;20010;-92
2023/03/14 05:13:03;;;;;;;10.93;6.35;;;0.30;99.90;;;;;;5048123;28;20029;-93
2023/03/14 05:15:29;;;;;;;8.23;4.28;;;0.30;99.90;;;;;;5010251;28;20084;-92
2023/03/14 05:17:55;;;;;;;6.10;5.03;;;0.40;99.90;;;;;;5005622;28;20033;-91
2023/03/14 05:20:21;;;;;;;7.82;5.60;;;0.30;99.90;;;;;;4998058;28;20038;-91
2023/03/14 05:22:48;;;;;;;4.65;3.47;;;0.40;99.90;;;;;;4981482;28;20113;-83
2023/03/14 05:25:13;;;;;;;9.27;6.30;;;0.40;99.90;;;;;;4985191;28;20025;-83
2023/03/14 05:27:39;;;;;;;7.65;5.22;;;0.40;99.90;;;;;;5008053;28;20672;-84
2023/03/14 05:30:06;;;;;;;10.23;5.60;;;0.40;99.90;;;;;;5000298;28;20049;-85
2023/03/14 05:32:32;;;;;;;6.77;4.37;;;0.50;99.90;;;;;;4996295;28;20050;-86
2023/03/14 05:34:59;;;;;;;10.55;5.88;;;0.50;99.90;;;;;;4980657;28;20264;-84
2023/03/14 05:37:27;;;;;;;6.57;5.70;;;0.60;99.90;;;;;;5000323;28;20041;-85
2023/03/14 05:39:53;;;;;;;5.72;3.90;;;0.60;99.90;;;;;;5018389;28;20117;-84
2023/03/14 05:42:20;;;;;;;7.45;3.95;;;0.60;99.90;;;;;;4995456;28;20030;-88
2023/03/14 05:44:46;;;;;;;7.47;4.28;;;0.60;99.90;;;;;;4980346;28;20033;-88
2023/03/14 05:47:11;;;;;;;6.93;4.40;;;0.70;99.90;;;;;;5001714;28;20042;-91
2023/03/14 05:49:37;;;;;;;9.25;5.10;;;0.70;99.90;;;;;;4998930;28;20016;-87
2023/03/14 05:52:04;;;;;;;8.93;4.60;;;0.80;99.90;;;;;;5022489;28;20038;-91
2023/03/14 05:54:30;;;;;;;6.05;3.58;;;0.80;99.90;;;;;;5046924;28;20048;-91
2023/03/14 05:56:57;;;;;;;7.57;3.63;;;0.90;99.90;;;;;;5053151;28;20022;-91
2023/03/14 05:59:22;;;;;;;7.07;4.32;;;1.00;99.90;;;;;;5018188;28;20038;-91
2023/03/14 06:01:50;;;;;;;8.55;4.38;;;1.00;99.90;;;;;;5043472;28;20056;-91
2023/03/14 06:04:18;;;;;;;;;;;1.10;99.90;;;;;;5046123;28;20033;-92
2023/03/14 06:06:49;;;;;;;6.95;3.95;;;1.10;99.90;;;;;;5029795;28;19925;-89
2023/03/14 06:09:15;;;;;;;8.50;4.20;;;1.10;99.90;;;;;;5019221;28;20118;-87
2023/03/14 06:11:41;;;;;;;9.60;4.32;;;1.10;99.90;;;;;;4983177;28;20034;-90
2023/03/14 06:14:07;;;;;;;6.25;3.85;;;1.20;99.90;;;;;;5013925;28;20442;-88
2023/03/14 06:16:33;;;;;;;8.88;4.40;;;1.30;99.90;;;;;;5016345;28;20122;-87
2023/03/14 06:18:59;;;;;;;9.15;3.75;;;1.40;99.90;;;;;;5012396;28;20025;-86
2023/03/14 06:21:25;;;;;;;5.30;4.20;;;1.50;99.90;;;;;;5035222;28;20033;-87
2023/03/14 06:23:51;;;;;;;6.50;3.65;;;1.60;99.90;;;;;;5024554;28;20112;-85
2023/03/14 06:26:17;;;;;;;5.88;3.53;;;1.70;99.90;;;;;;5022957;28;20056;-86
2023/03/14 06:28:43;;;;;;;4.07;2.92;;;1.80;99.90;;;;;;5018256;28;20033;-86
2023/03/14 06:31:09;;;;;;;6.20;4.60;;;1.80;99.90;;;;;;5004174;28;20030;-87
2023/03/14 06:33:35;;;;;;;5.85;3.55;;;1.90;99.90;;;;;;5016186;28;20034;-83
2023/03/14 06:36:01;;;;;;;5.22;3.50;;;2.00;99.90;;;;;;5015500;28;20052;-85
2023/03/14 06:38:27;;;;;;;5.88;3.42;;;2.00;99.90;;;;;;5010413;28;20022;-84
2023/03/14 06:40:53;;;;;;;8.73;4.53;;;2.20;99.90;;;;;;5006437;28;20087;-86
2023/03/14 06:43:19;;;;;;;11.02;4.53;;;2.20;99.90;;;;;;5020046;28;20438;-87
2023/03/14 06:45:47;;;;;;;7.25;3.95;;;2.30;99.90;;;;;;5012419;28;20026;-87
2023/03/14 06:48:12;;;;;;;4.93;2.47;;;2.30;99.90;;;;;;5019075;28;20034;-84
2023/03/14 06:50:38;;;;;;;5.18;3.53;;;2.40;99.90;;;;;;5016492;28;20036;-81
2023/03/14 06:53:04;;;;;;;8.40;5.13;;;2.40;99.90;;;;;;5014191;28;20629;-81
2023/03/14 06:55:30;;;;;;;5.22;2.53;;;2.40;99.90;;;;;;5018790;28;20038;-82
2023/03/14 06:57:56;;;;;;;3.78;2.20;;;2.50;99.90;;;;;;5020880;28;20026;-81
2023/03/14 07:00:22;;;;;;;5.93;3.63;;;2.50;99.90;;;;;;5019718;28;20053;-82
2023/03/14 07:02:48;;;;;;;6.55;3.47;;;2.40;99.90;;;;;;5018159;28;20026;-82
2023/03/14 07:05:14;;;;;;;5.97;3.67;;;2.50;99.90;;;;;;5016357;28;20444;-82
2023/03/14 07:07:40;;;;;;;5.32;4.28;;;2.60;99.90;;;;;;5026932;28;20026;-82
2023/03/14 07:10:08;;;;;;;7.15;4.22;;;2.70;99.90;;;;;;5005924;28;20165;-82
2023/03/14 07:12:34;;;;;;;6.13;4.18;;;2.70;99.90;;;;;;5017544;28;20482;-82
2023/03/14 07:15:00;;;;;;;8.60;5.13;;;2.80;99.90;;;;;;5015925;28;20026;-82
2023/03/14 07:17:26;;;;;;;4.45;2.45;;;2.90;99.90;;;;;;5017959;28;20105;-82
2023/03/14 07:19:52;;;;;;;7.63;4.20;;;2.90;99.90;;;;;;5014387;28;20033;-84
2023/03/14 07:22:18;;;;;;;6.85;4.38;;;2.90;99.90;;;;;;5014292;28;20034;-84
2023/03/14 07:24:44;;;;;;;5.75;3.58;;;2.90;99.90;;;;;;5015814;28;20018;-82
2023/03/14 07:27:09;;;;;;;5.40;3.63;;;2.90;99.90;;;;;;5015494;28;20480;-82
2023/03/14 07:29:35;;;;;;;8.80;3.85;;;2.90;99.90;;;;;;5015859;28;20025;-82
2023/03/14 07:32:01;;;;;;;8.07;4.47;;;2.90;99.90;;;;;;5016429;28;20033;-83
2023/03/14 07:34:27;;;;;;;7.10;3.95;;;2.90;99.90;;;;;;5020166;28;20076;-83
2023/03/14 07:36:53;;;;;;;5.10;3.28;;;3.00;99.90;;;;;;5021655;28;20104;-80
2023/03/14 07:39:19;;;;;;;5.78;4.13;;;3.10;99.90;;;;;;5019739;28;20030;-83
2023/03/14 07:41:45;;;;;;;7.35;3.67;;;3.20;99.90;;;;;;5019405;28;20472;-83
2023/03/14 07:44:11;;;;;;;5.85;3.42;;;3.30;99.90;;;;;;5023518;28;20014;-84
2023/03/14 07:46:36;;;;;;;7.85;3.88;;;3.30;99.90;;;;;;5016782;28;20085;-82
2023/03/14 07:49:02;;;;;;;6.70;4.10;;;3.20;99.90;;;;;;5019197;28;20038;-82
2023/03/14 07:51:28;;;;;;;6.55;4.50;;;3.20;99.90;;;;;;5016454;28;20019;-81
2023/03/14 07:53:54;;;;;;;7.60;4.25;;;3.30;99.90;;;;;;5034775;28;20029;-82
2023/03/14 07:56:20;;;;;;;10.48;4.05;;;3.30;99.90;;;;;;5016523;28;20032;-82
2023/03/14 07:58:46;;;;;;;8.90;4.72;;;3.40;99.90;;;;;;5018224;28;20030;-82
2023/03/14 08:01:12;;;;;;;10.73;4.43;;;3.50;99.90;;;;;;5018400;28;20120;-82
2023/03/14 08:03:37;;;;;;;5.82;3.45;;;3.50;99.90;;;;;;5019234;28;20140;-82
2023/03/14 08:06:04;;;;;;;5.38;3.70;;;3.50;99.90;;;;;;5018147;28;20034;-81
2023/03/14 08:08:29;;;;;;;9.02;4.35;;;3.40;99.90;;;;;;5016763;28;20029;-82
2023/03/14 08:10:55;;;;;;;8.85;4.93;;;3.40;99.90;;;;;;5017709;28;20022;-82
2023/03/14 08:13:23;;;;;;;6.93;4.00;;;3.40;99.90;;;;;;5019128;28;20399;-82
2023/03/14 08:15:49;;;;;;;8.55;5.68;;;3.40;99.90;;;;;;5020747;28;20022;-83
2023/03/14 08:18:15;;;;;;;5.80;4.10;;;3.30;99.90;;;;;;5020022;28;20033;-82
2023/03/14 08:20:41;;;;;;;6.18;3.78;;;3.30;99.90;;;;;;5018305;28;20018;-81
2023/03/14 08:23:07;;;;;;;4.93;3.38;;;3.30;99.90;;;;;;5017848;28;20096;-81
2023/03/14 08:25:33;;;;;;;8.27;3.92;;;3.30;99.90;;;;;;5015726;28;20036;-82
2023/03/14 08:27:59;;;;;;;5.43;3.40;;;3.20;99.90;;;;;;5017650;28;20022;-81
2023/03/14 08:30:25;;;;;;;5.70;4.20;;;3.20;99.90;;;;;;5018530;28;20776;-81
2023/03/14 08:32:51;;;;;;;10.65;5.18;;;3.20;99.90;;;;;;5017315;28;20094;-82
2023/03/14 08:35:17;;;;;;;5.85;3.03;;;3.20;99.90;;;;;;5034384;28;20022;-80
2023/03/14 08:37:43;;;;;;;6.50;4.55;;;3.30;99.90;;;;;;5019602;28;20030;-81
2023/03/14 08:40:12;;;;;;;6.95;4.85;;;3.30;99.90;;;;;;5035827;28;20022;-81
2023/03/14 08:42:39;;;;;;;7.05;4.78;;;3.20;99.90;;;;;;5013797;28;20022;-81
2023/03/14 08:45:07;;;;;;;4.75;3.80;;;3.30;99.90;;;;;;5025001;28;20018;-80
2023/03/14 08:47:33;;;;;;;4.72;3.72;;;3.40;99.90;;;;;;5022775;28;20037;-83
2023/03/14 08:49:59;;;;;;;6.13;4.18;;;3.40;99.90;;;;;;5019455;28;20026;-83
2023/03/14 08:52:25;;;;;;;6.68;4.40;;;3.60;99.90;;;;;;5034415;28;20414;-82
2023/03/14 08:54:51;;;;;;;7.57;4.55;;;3.60;99.90;;;;;;5019221;28;20018;-82
2023/03/14 08:57:16;;;;;;;8.55;4.90;;;3.80;99.90;;;;;;5022712;28;20454;-83
2023/03/14 08:59:43;;;;;;;7.00;5.05;;;3.90;99.90;;;;;;5034482;28;20026;-80
2023/03/14 09:02:12;;;;;;;7.10;4.43;;;4.00;99.90;;;;;;5020460;28;20025;-81
2023/03/14 09:04:38;;;;;;;9.13;3.97;;;4.10;99.90;;;;;;5019607;28;20361;-81
2023/03/14 09:07:04;;;;;;;7.82;3.75;;;4.20;99.90;;;;;;5018262;28;20033;-81
2023/03/14 09:09:30;;;;;;;11.00;5.40;;;4.30;99.30;;;;;;5017410;28;20025;-81
2023/03/14 09:11:56;;;;;;;11.60;4.38;;;4.40;99.10;;;;;;5031792;28;20037;-82
2023/03/14 09:14:23;;;;;;;8.40;3.85;;;4.40;98.60;;;;;;5017841;28;20026;-82
2023/03/14 09:16:49;;;;;;;7.28;3.88;;;4.50;98.60;;;;;;5009252;28;20048;-83
2023/03/14 09:19:15;;;;;;;10.02;4.53;;;4.50;97.90;;;;;;5018892;28;20038;-83
2023/03/14 09:21:41;;;;;;;8.13;4.25;;;4.50;97.50;;;;;;5015710;28;20033;-82
2023/03/14 09:24:07;;;;;;;7.38;4.85;;;4.50;96.80;;;;;;5017098;28;20029;-82
2023/03/14 09:26:32;;;;;;;12.20;4.60;;;4.60;97.10;;;;;;5017102;28;20017;-83
2023/03/14 09:28:58;;;;;;;5.60;4.28;;;4.70;97.00;;;;;;5016749;28;20411;-82
2023/03/14 09:31:24;;;;;;;3.58;2.67;;;4.70;96.70;;;;;;5015954;28;20761;-82
2023/03/14 09:33:50;;;;;;;6.60;4.70;;;4.80;96.40;;;;;;5016707;28;20026;-83
2023/03/14 09:36:16;;;;;;;4.93;3.42;;;4.80;96.40;;;;;;5016687;28;20048;-82
2023/03/14 09:38:42;;;;;;;8.40;5.55;;;4.80;96.10;;;;;;5016719;28;20049;-80
2023/03/14 09:41:18;;;;;;;5.97;3.83;;;4.90;96.30;;;;;;5016252;28;20029;-81
2023/03/14 09:43:46;;;;;;;5.60;3.67;;;4.90;96.00;;;;;;5017711;28;20021;-81
2023/03/14 09:46:13;;;;;;;8.95;4.25;;;4.90;95.70;;;;;;5033553;28;20069;-81
2023/03/14 09:48:40;;;;;;;4.80;3.75;;;4.90;95.40;;;;;;5034053;28;20061;-81
2023/03/14 09:51:20;;;;;;;11.77;5.23;;;5.00;95.50;;;;;;5018298;28;20102;-81
2023/03/14 09:53:48;;;;;;;9.50;4.90;;;5.00;95.20;;;;;;5026833;28;20061;-82
2023/03/14 09:56:29;;;;;;;9.50;4.22;;;5.10;94.90;;;;;;5023832;28;20101;-82
2023/03/14 09:59:00;;;;;;;9.10;4.40;;;5.10;94.90;;;;;;5019471;28;20033;-81
2023/03/14 10:01:32;;;;;;;6.47;4.68;;;5.20;94.90;;;;;;5015706;28;20081;-82
2023/03/14 10:04:04;;;;;;;9.65;5.03;;;5.20;94.60;;;;;;5023761;28;20476;-82
2023/03/14 10:06:31;;;;;;;8.38;4.95;;;5.30;94.60;;;;;;5015934;28;20030;-82
2023/03/14 10:08:57;;;;;;;7.88;5.25;;;5.30;94.30;;;;;;5030867;28;20096;-81
2023/03/14 10:11:24;;;;;;;6.97;4.53;;;5.40;94.20;;;;;;5014703;28;20399;-82
2023/03/14 10:14:02;;;;;;;6.33;4.33;;;5.20;94.50;;;;;;5015480;28;20041;-81
2023/03/14 10:16:30;;;;;;;9.65;4.28;;;5.00;95.70;;;;;;5014128;28;20442;-81
2023/03/14 10:19:06;;;;;;;8.90;4.35;;;4.70;96.40;;;;;;5015135;28;20036;-83
2023/03/14 10:21:38;;;;;;;6.63;4.55;;;4.70;96.60;;;;;;5002210;28;20391;-81
2023/03/14 10:24:22;;;;;;;6.55;3.60;;;4.70;96.70;;;;;;5015893;28;20026;-83
2023/03/14 10:26:51;;;;;;;13.23;3.67;;;4.60;97.70;;;;;;5008153;28;20048;-81
2023/03/14 10:29:17;;;;;;;9.15;5.30;;;4.60;97.80;;;;;;5018317;28;20068;-82
2023/03/14 10:32:03;;;;;;;7.00;5.20;;;4.60;97.40;;;;;;5018025;28;20026;-80
2023/03/14 10:34:33;;;;;;;7.18;4.03;;;4.70;97.50;;;;;;5021692;28;20034;-81
2023/03/14 10:37:21;;;;;;;9.50;5.60;;;4.80;97.50;;;;;;5017479;28;20117;-83
2023/03/14 10:39:50;;;;;;;10.07;4.90;;;4.90;96.90;;;;;;5034829;28;20077;-81
2023/03/14 10:42:29;;;;;;;6.93;4.75;;;5.00;96.90;;;;;;5018773;28;20018;-81
2023/03/14 10:44:59;;;;;;;5.43;3.88;;;5.10;96.70;;;;;;5016326;28;20038;-81
2023/03/14 10:47:28;;;;;;;8.30;4.13;;;5.20;96.30;;;;;;5015285;28;20045;-82
2023/03/14 10:49:54;;;;;;;6.30;4.15;;;5.30;95.90;;;;;;5014559;28;20030;-81
2023/03/14 10:52:29;;;;;;;5.03;3.17;;;5.40;95.70;;;;;;5013603;28;20053;-81
2023/03/14 10:55:01;;;;;;;7.38;4.63;;;5.40;95.20;;;;;;5015656;28;20025;-83
2023/03/14 10:57:27;;;;;;;9.65;5.28;;;5.50;94.90;;;;;;5018560;28;20018;-80
2023/03/14 10:59:56;;;;;;;9.13;5.50;;;5.60;94.90;;;;;;5023815;28;20101;-81
2023/03/14 11:02:42;;;;;;;5.55;3.70;;;5.70;94.10;;;;;;5021589;28;20033;-81
2023/03/14 11:05:28;;;;;;;5.82;3.28;;;5.80;93.30;;;;;;5020000;28;20480;-82
2023/03/14 11:08:08;;;;;;;5.43;3.90;;;6.00;93.10;;;;;;5024551;28;20021;-80
2023/03/14 11:10:40;;;;;;;5.35;3.90;;;6.30;92.50;;;;;;5022535;28;20018;-81
2023/03/14 11:13:25;;;;;;;7.15;4.97;;;6.60;92.60;;;;;;5022637;28;20022;-81
2023/03/14 11:16:28;;;;;;;4.88;3.90;;;7.00;92.00;;;;;;5022641;28;20033;-82
2023/03/14 11:19:22;;;;;;;5.43;3.88;;;7.30;91.20;;;;;;5036617;28;20025;-81
2023/03/14 11:22:05;;;;;;;5.65;4.22;;;7.50;90.10;;;;;;5019428;28;20022;-81
2023/03/14 11:24:42;;;;;;;11.93;4.95;;;7.60;88.70;;;;;;5021169;28;20036;-82
2023/03/14 11:27:12;;;;;;;9.35;4.45;;;7.60;87.80;;;;;;5021231;28;20022;-81
2023/03/14 11:29:43;;;;;;;8.15;4.97;;;7.60;86.80;;;;;;5021470;28;20052;-80
2023/03/14 11:32:29;;;;;;;8.98;5.55;;;7.40;86.20;;;;;;5022162;28;20030;-82
2023/03/14 11:34:56;;;;;;;6.80;4.10;;;7.30;86.30;;;;;;5021745;28;20107;-80
2023/03/14 11:37:31;;;;;;;8.00;4.40;;;7.20;86.20;;;;;;5021809;28;20022;-80
2023/03/14 11:40:16;;;;;;;7.13;3.78;;;7.20;85.70;;;;;;5021646;28;20030;-79
2023/03/14 11:42:46;;;;;;;8.70;4.82;;;7.10;86.40;;;;;;5021871;28;20053;-84
2023/03/14 11:45:25;;;;;;;6.78;4.82;;;7.20;85.30;;;;;;5020032;28;20030;-81
2023/03/14 11:48:05;;;;;;;6.25;4.43;;;7.20;85.00;;;;;;5020740;28;20395;-81
2023/03/14 11:50:33;;;;;;;6.13;4.30;;;7.20;85.20;;;;;;5037086;28;20022;-82
2023/03/14 11:53:09;;;;;;;7.70;4.30;;;7.10;85.10;;;;;;5023110;28;20041;-81
2023/03/14 11:55:36;;;;;;;9.85;5.13;;;7.10;85.00;;;;;;5019941;28;20030;-82
2023/03/14 11:58:19;;;;;;;10.65;5.70;;;7.10;85.40;;;;;;5021111;28;20029;-81
2023/03/14 12:00:48;;;;;;;7.85;5.68;;;7.10;85.30;;;;;;5020392;28;20050;-80
2023/03/14 12:03:23;;;;;;;8.80;5.13;;;7.10;85.60;;;;;;5021535;28;20029;-80
2023/03/14 12:05:53;;;;;;;13.40;6.35;;;7.10;84.80;;;;;;5016646;28;20022;-82
2023/03/14 12:08:37;;;;;;;8.27;4.47;;;7.10;85.00;;;;;;5011510;28;20131;-82
2023/03/14 12:11:43;;;;;;;5.20;4.65;;;7.20;85.00;;;;;;5021285;28;20421;-81
2023/03/14 12:14:31;;;;;;;7.38;4.63;;;7.20;85.10;;;;;;5003803;28;20049;-81
2023/03/14 12:17:04;;;;;;;5.00;4.07;;;7.20;84.10;;;;;;5016365;28;20034;-82
2023/03/14 12:19:33;;;;;;;10.45;4.80;;;7.20;83.30;;;;;;5017138;28;20041;-80
2023/03/14 12:22:22;;;;;;;8.45;5.10;;;7.20;83.70;;;;;;5019361;28;20022;-82
2023/03/14 12:24:53;;;;;;;6.45;3.53;;;7.20;83.00;;;;;;5017205;28;20057;-82
2023/03/14 12:27:47;;;;;;;5.80;3.90;;;7.20;83.10;;;;;;5036478;28;20105;-82
2023/03/14 12:30:29;;;;;;;8.70;3.85;;;7.10;82.30;;;;;;5025906;28;20081;-80
2023/03/14 12:33:18;;;;;;;9.07;4.30;;;7.10;82.20;;;;;;5031801;28;20030;-83
2023/03/14 12:35:51;;;;;;;9.93;4.35;;;7.00;82.30;;;;;;5010627;28;20030;-82
2023/03/14 12:38:36;;;;;;;7.97;4.03;;;7.00;82.00;;;;;;5020213;28;20034;-83
2023/03/14 12:41:22;;;;;;;8.70;4.45;;;7.00;82.00;;;;;;5017916;28;20029;-81
2023/03/14 12:43:49;;;;;;;6.80;4.13;;;7.00;82.40;;;;;;5014931;28;20476;-83
2023/03/14 12:46:17;;;;;;;9.43;4.18;;;7.00;83.10;;;;;;5015830;28;20113;-84
2023/03/14 12:49:00;;;;;;;5.78;3.22;;;6.80;85.20;;;;;;5015661;28;20032;-83
2023/03/14 12:51:35;;;;;;;10.88;4.82;;;6.50;86.80;;;;;;5016055;28;20033;-82
2023/03/14 12:54:22;;;;;;;6.75;4.82;;;6.10;88.90;;;;;;5016804;28;20034;-83
2023/03/14 12:57:06;;;;;;;5.32;3.78;;;5.90;90.40;;;;;;5016149;28;20022;-82
2023/03/14 12:59:40;;;;;;;7.38;4.47;;;5.80;91.40;;;;;;5024605;28;20039;-81
2023/03/14 13:02:06;;;;;;;6.38;4.35;;;5.60;92.40;;;;;;5029831;28;20029;-81
2023/03/14 13:04:44;;;;;;;5.38;3.70;;;5.10;94.90;;;;;;5025252;28;20483;-81